createdAt,value
2022-11-02T00:00:31.459Z,10.90
2022-11-02T00:02:59.854Z,10.97
2022-11-02T00:05:28.274Z,10.37
2022-11-02T00:07:56.851Z,9.60
2022-11-02T00:10:25.769Z,10.73
2022-11-02T00:12:54.515Z,10.80
2022-11-02T00:15:23.775Z,11.17
2022-11-02T00:17:57.228Z,9.50
2022-11-02T00:20:26.395Z,10.17
2022-11-02T00:22:57.442Z,10.37
2022-11-02T00:25:27.030Z,10.37
2022-11-02T00:27:55.301Z,10.57
2022-11-02T00:30:23.958Z,10.33
2022-11-02T00:32:54.250Z,10.43
2022-11-02T00:35:22.486Z,10.90
2022-11-02T00:37:50.688Z,10.53
2022-11-02T00:40:19.341Z,11.93
2022-11-02T00:42:47.665Z,10.93
2022-11-02T00:45:16.014Z,11.70
2022-11-02T00:47:44.401Z,11.70
2022-11-02T00:50:14.096Z,11.93
2022-11-02T00:52:42.489Z,11.57
2022-11-02T00:55:12.746Z,12.10
2022-11-02T00:57:44.384Z,11.40
2022-11-02T01:00:14.798Z,12.40
2022-11-02T01:02:43.632Z,11.87
2022-11-02T01:05:13.882Z,12.27
2022-11-02T01:07:42.291Z,11.67
2022-11-02T01:10:12.048Z,13.37
2022-11-02T01:12:41.354Z,11.43
2022-11-02T01:15:12.297Z,11.70
2022-11-02T01:17:40.767Z,11.70
2022-11-02T01:20:10.137Z,11.13
2022-11-02T01:22:39.826Z,12.17
2022-11-02T01:25:09.271Z,12.10
2022-11-02T01:27:37.531Z,11.53
2022-11-02T01:30:06.964Z,10.73
2022-11-02T01:32:35.409Z,11.33
2022-11-02T01:35:03.952Z,11.90
2022-11-02T01:37:32.403Z,11.33
2022-11-02T01:40:02.095Z,11.63
2022-11-02T01:42:30.377Z,11.03
2022-11-02T01:44:58.635Z,11.70
2022-11-02T01:47:29.554Z,10.70
2022-11-02T01:50:00.203Z,11.60
2022-11-02T01:52:32.094Z,11.40
2022-11-02T01:55:04.754Z,11.73
2022-11-02T01:57:34.599Z,12.70
2022-11-02T02:00:06.641Z,11.00
2022-11-02T02:02:46.050Z,11.57
2022-11-02T02:05:14.923Z,11.57
2022-11-02T02:07:43.326Z,11.63
2022-11-02T02:10:13.241Z,10.80
2022-11-02T02:12:42.632Z,10.97
2022-11-02T02:15:12.598Z,11.00
2022-11-02T02:17:45.958Z,12.30
2022-11-02T02:20:21.696Z,11.30
2022-11-02T02:23:23.884Z,12.03
2022-11-02T02:26:16.381Z,11.47
2022-11-02T02:28:50.061Z,11.57
2022-11-02T02:31:21.320Z,11.97
2022-11-02T02:33:53.385Z,12.30
2022-11-02T02:36:24.677Z,12.80
2022-11-02T02:38:59.539Z,11.40
2022-11-02T02:41:35.872Z,11.23
2022-11-02T02:44:07.164Z,11.97
2022-11-02T02:46:41.934Z,10.37
2022-11-02T02:49:14.374Z,9.50
2022-11-02T02:51:44.226Z,10.73
2022-11-02T02:54:14.933Z,11.13
2022-11-02T02:56:47.883Z,10.00
2022-11-02T02:59:21.636Z,10.40
2022-11-02T03:01:51.428Z,9.93
2022-11-02T03:04:19.751Z,11.70
2022-11-02T03:06:52.924Z,10.60
2022-11-02T03:09:28.063Z,11.03
2022-11-02T03:12:08.088Z,10.20
2022-11-02T03:14:49.874Z,11.30
2022-11-02T03:17:23.951Z,9.90
2022-11-02T03:19:57.089Z,10.20
2022-11-02T03:22:32.014Z,12.03
2022-11-02T03:25:06.893Z,9.87
2022-11-02T03:27:39.895Z,9.97
2022-11-02T03:30:14.074Z,9.00
2022-11-02T03:32:48.956Z,9.20
2022-11-02T03:35:20.728Z,9.40
2022-11-02T03:37:54.119Z,9.27
2022-11-02T03:40:26.427Z,9.07
2022-11-02T03:42:55.239Z,11.13
2022-11-02T03:45:26.916Z,10.10
2022-11-02T03:47:58.803Z,10.43
2022-11-02T03:50:27.983Z,10.70
2022-11-02T03:52:59.996Z,10.87
2022-11-02T03:55:31.461Z,11.07
2022-11-02T03:58:00.569Z,10.80
2022-11-02T04:00:34.911Z,10.70
2022-11-02T04:03:08.159Z,10.20
2022-11-02T04:05:41.664Z,10.17
2022-11-02T04:08:24.352Z,10.67
2022-11-02T04:11:13.562Z,10.50
2022-11-02T04:14:01.641Z,11.53
2022-11-02T04:16:34.333Z,11.30
2022-11-02T04:19:23.723Z,11.70
2022-11-02T04:22:10.481Z,12.77
2022-11-02T04:24:57.821Z,12.43
2022-11-02T04:27:26.487Z,12.07
2022-11-02T04:29:54.893Z,11.70
2022-11-02T04:32:42.963Z,12.57
2022-11-02T04:35:15.262Z,11.30
2022-11-02T04:38:03.874Z,11.40
2022-11-02T04:40:36.978Z,11.10
2022-11-02T04:43:06.520Z,11.23
2022-11-02T04:45:36.221Z,10.17
2022-11-02T04:48:08.509Z,11.37
2022-11-02T04:50:37.897Z,11.97
2022-11-02T04:53:08.294Z,12.07
2022-11-02T04:55:37.448Z,11.17
2022-11-02T04:58:06.091Z,11.07
2022-11-02T05:00:34.695Z,11.67
2022-11-02T05:03:05.699Z,11.70
2022-11-02T05:05:38.013Z,10.87
2022-11-02T05:08:06.930Z,10.60
2022-11-02T05:10:35.775Z,12.50
2022-11-02T05:13:04.585Z,10.73
2022-11-02T05:15:35.891Z,12.40
2022-11-02T05:18:08.264Z,12.10
2022-11-02T05:20:38.479Z,11.37
2022-11-02T05:23:07.384Z,11.97
2022-11-02T05:25:35.910Z,10.77
2022-11-02T05:28:04.134Z,12.70
2022-11-02T05:30:32.722Z,12.20
2022-11-02T05:33:03.136Z,11.50
2022-11-02T05:35:32.931Z,13.27
2022-11-02T05:38:03.033Z,13.00
2022-11-02T05:40:31.591Z,13.00
2022-11-02T05:43:01.243Z,13.57
2022-11-02T05:45:30.131Z,14.70
2022-11-02T05:47:59.246Z,14.73
2022-11-02T05:50:27.624Z,15.50
2022-11-02T05:52:56.167Z,14.60
2022-11-02T05:55:26.070Z,14.03
2022-11-02T05:57:54.991Z,14.50
2022-11-02T06:00:24.263Z,11.70
2022-11-02T06:02:58.347Z,14.23
2022-11-02T06:05:27.433Z,13.97
2022-11-02T06:07:59.714Z,12.90
2022-11-02T06:10:30.581Z,13.60
2022-11-02T06:12:59.728Z,12.63
2022-11-02T06:15:28.017Z,11.27
2022-11-02T06:17:56.750Z,12.53
2022-11-02T06:20:25.285Z,12.27
2022-11-02T06:22:53.603Z,14.40
2022-11-02T06:25:21.891Z,14.07
2022-11-02T06:27:56.679Z,13.20
2022-11-02T06:30:28.990Z,13.80
2022-11-02T06:32:58.692Z,14.90
2022-11-02T06:35:29.738Z,14.60
2022-11-02T06:37:58.064Z,14.33
2022-11-02T06:40:26.752Z,14.20
2022-11-02T06:45:46.860Z,15.10
2022-11-02T06:48:15.605Z,18.90
2022-11-02T06:50:43.854Z,20.57
2022-11-02T06:53:12.424Z,18.33
2022-11-02T06:55:40.714Z,19.67
2022-11-02T06:58:10.348Z,19.40
2022-11-02T07:00:38.684Z,17.50
2022-11-02T07:03:08.981Z,18.77
2022-11-02T07:05:38.046Z,19.97
2022-11-02T07:08:06.823Z,19.93
2022-11-02T07:10:36.295Z,17.87
2022-11-02T07:13:04.711Z,19.80
2022-11-02T07:15:34.561Z,20.33
2022-11-02T07:18:02.905Z,21.50
2022-11-02T07:20:31.504Z,22.47
2022-11-02T07:23:01.770Z,21.93
2022-11-02T07:25:32.439Z,24.97
2022-11-02T07:28:01.367Z,20.67
2022-11-02T07:30:30.505Z,24.47
2022-11-02T07:33:00.129Z,21.90
2022-11-02T07:35:28.714Z,22.20
2022-11-02T07:37:58.204Z,21.90
2022-11-02T07:40:26.788Z,22.53
2022-11-02T07:42:55.278Z,24.60
2022-11-02T07:45:33.010Z,23.67
2022-11-02T07:48:02.667Z,21.33
2022-11-02T07:50:30.985Z,25.47
2022-11-02T07:53:00.729Z,25.23
2022-11-02T07:55:30.554Z,24.47
2022-11-02T07:58:01.066Z,25.30
2022-11-02T08:00:31.458Z,24.20
2022-11-02T08:03:01.189Z,22.13
2022-11-02T08:05:32.372Z,23.70
2022-11-02T08:08:01.335Z,21.87
2022-11-02T08:10:35.331Z,20.73
2022-11-02T08:13:08.204Z,15.20
2022-11-02T08:15:37.330Z,10.77
2022-11-02T08:18:07.620Z,12.00
2022-11-02T08:20:38.088Z,10.70
2022-11-02T08:23:07.964Z,10.50
2022-11-02T08:25:37.039Z,10.23
2022-11-02T08:28:06.628Z,9.93
2022-11-02T08:30:38.359Z,12.00
2022-11-02T08:33:09.816Z,12.30
2022-11-02T08:35:40.002Z,11.77
2022-11-02T08:38:09.644Z,14.50
2022-11-02T08:40:39.027Z,12.40
2022-11-02T08:43:08.497Z,12.90
2022-11-02T08:46:12.848Z,11.33
2022-11-02T08:48:27.115Z,10.67
2022-11-02T08:50:57.296Z,10.30
2022-11-02T08:53:25.554Z,10.70
2022-11-02T08:55:53.957Z,11.20
2022-11-02T08:58:22.301Z,10.17
2022-11-02T09:00:50.643Z,9.60
2022-11-02T09:03:25.016Z,8.97
2022-11-02T09:06:00.227Z,8.57
2022-11-02T09:08:29.244Z,9.37
2022-11-02T09:11:03.818Z,8.43
2022-11-02T09:13:33.600Z,9.23
2022-11-02T09:16:02.918Z,8.67
2022-11-02T09:18:31.821Z,9.43
2022-11-02T09:21:04.416Z,8.30
2022-11-02T09:23:33.228Z,8.50
2022-11-02T09:26:01.563Z,9.17
2022-11-02T09:28:31.234Z,9.60
2022-11-02T09:30:59.856Z,8.87
2022-11-02T09:33:29.971Z,7.43
2022-11-02T09:36:04.964Z,8.13
2022-11-02T09:38:34.503Z,7.23
2022-11-02T09:41:12.678Z,7.73
2022-11-02T09:43:51.977Z,8.23
2022-11-02T09:46:24.284Z,7.90
2022-11-02T09:48:55.513Z,7.93
2022-11-02T09:51:27.893Z,9.00
2022-11-02T09:54:03.752Z,7.70
2022-11-02T09:56:34.243Z,7.10
2022-11-02T09:59:04.427Z,8.10
2022-11-02T10:01:42.456Z,8.10
2022-11-02T10:04:53.325Z,7.70
2022-11-02T10:07:34.454Z,7.80
2022-11-02T10:10:05.476Z,7.87
2022-11-02T10:12:42.468Z,7.60
2022-11-02T10:15:15.236Z,7.00
2022-11-02T10:17:43.939Z,8.77
2022-11-02T10:20:21.068Z,6.90
2022-11-02T10:22:51.026Z,6.63
2022-11-02T10:25:19.547Z,7.20
2022-11-02T10:27:51.165Z,5.33
2022-11-02T10:30:21.425Z,5.70
2022-11-02T10:32:52.454Z,5.40
2022-11-02T10:35:40.707Z,5.73
2022-11-02T10:38:23.949Z,6.43
2022-11-02T10:41:19.948Z,6.23
2022-11-02T10:44:06.557Z,6.10
2022-11-02T10:46:42.806Z,6.13
2022-11-02T11:10:53.504Z,6.40
2022-11-02T11:16:16.841Z,6.20
2022-11-02T11:21:41.064Z,6.80
2022-11-02T11:24:22.138Z,6.43
2022-11-02T11:27:14.077Z,5.63
2022-11-02T11:29:46.781Z,5.70
2022-11-02T11:32:18.213Z,4.90
2022-11-02T11:34:55.782Z,5.83
2022-11-02T11:37:24.639Z,4.50
2022-11-02T11:39:55.193Z,5.27
2022-11-02T11:42:26.687Z,4.60
2022-11-02T11:45:01.812Z,4.73
2022-11-02T11:47:33.603Z,4.47
2022-11-02T11:50:14.823Z,4.67
2022-11-02T11:53:09.715Z,3.90
2022-11-02T11:55:48.093Z,3.83
2022-11-02T11:58:23.556Z,4.10
2022-11-02T12:01:14.936Z,4.17
2022-11-02T12:03:52.327Z,3.43
2022-11-02T12:06:25.766Z,3.83
2022-11-02T12:09:04.216Z,4.03
2022-11-02T12:11:43.895Z,4.03
2022-11-02T12:14:21.766Z,4.40
2022-11-02T12:17:05.652Z,4.13
2022-11-02T12:19:44.402Z,4.87
2022-11-02T12:22:18.069Z,4.07
2022-11-02T12:25:08.020Z,4.20
2022-11-02T12:27:43.629Z,4.00
2022-11-02T12:30:16.910Z,4.47
2022-11-02T12:33:07.248Z,4.30
2022-11-02T12:36:06.966Z,3.37
2022-11-02T12:38:53.473Z,4.80
2022-11-02T12:41:39.013Z,4.40
2022-11-02T12:44:18.694Z,4.10
2022-11-02T12:46:55.523Z,3.80
2022-11-02T12:49:36.234Z,4.10
2022-11-02T12:52:14.559Z,3.90
2022-11-02T12:54:45.481Z,3.87
2022-11-02T12:57:15.402Z,4.60
2022-11-02T12:59:45.331Z,3.87
2022-11-02T13:02:17.688Z,3.53
2022-11-02T13:04:50.614Z,4.07
2022-11-02T13:37:47.461Z,3.63
2022-11-02T13:40:22.134Z,3.10
2022-11-02T13:43:20.084Z,3.50
2022-11-02T13:45:55.622Z,4.30
2022-11-02T13:48:34.805Z,3.50
2022-11-02T13:51:07.302Z,3.50
2022-11-02T13:53:40.131Z,3.57
2022-11-02T13:56:10.815Z,4.50
2022-11-02T13:58:42.637Z,3.03
2022-11-02T14:01:12.559Z,3.90
2022-11-02T14:03:50.065Z,3.93
2022-11-02T14:06:20.354Z,3.37
2022-11-02T14:08:53.038Z,3.83
2022-11-02T14:11:43.642Z,4.50
2022-11-02T14:14:23.500Z,3.97
2022-11-02T14:17:14.127Z,3.70
2022-11-02T14:19:56.974Z,3.63
2022-11-02T14:22:25.344Z,3.70
2022-11-02T14:24:56.421Z,3.50
2022-11-02T14:27:31.519Z,3.53
2022-11-02T14:30:00.318Z,3.17
2022-11-02T14:32:41.043Z,4.03
2022-11-02T14:35:19.015Z,3.37
2022-11-02T14:38:08.173Z,3.87
2022-11-02T14:40:44.753Z,3.43
2022-11-02T14:43:31.690Z,4.20
2022-11-02T14:46:09.689Z,2.97
2022-11-02T14:48:46.465Z,3.83
2022-11-02T14:51:19.637Z,3.70
2022-11-02T14:53:48.520Z,3.90
2022-11-02T14:56:18.229Z,3.83
2022-11-02T14:58:52.035Z,3.93
2022-11-02T15:01:20.918Z,3.57
2022-11-02T15:03:49.930Z,4.40
2022-11-02T15:06:23.796Z,3.77
2022-11-02T15:08:54.905Z,4.60
2022-11-02T15:11:47.450Z,4.37
2022-11-02T15:14:59.822Z,3.90
2022-11-02T15:18:00.381Z,4.00
2022-11-02T15:20:31.119Z,3.90
2022-11-02T15:23:21.123Z,4.60
2022-11-02T15:25:59.214Z,4.10
2022-11-02T15:28:30.950Z,4.23
2022-11-02T15:31:02.944Z,4.93
2022-11-02T15:33:37.052Z,4.03
2022-11-02T15:36:10.498Z,4.80
2022-11-02T15:38:40.486Z,5.47
2022-11-02T15:41:26.320Z,4.80
2022-11-02T15:44:26.072Z,4.40
2022-11-02T15:47:07.298Z,5.37
2022-11-02T15:50:07.401Z,4.90
2022-11-02T15:53:16.584Z,4.50
2022-11-02T15:55:43.075Z,4.30
2022-11-02T15:58:19.939Z,5.23
2022-11-02T16:01:07.458Z,5.47
2022-11-02T16:03:36.101Z,6.23
2022-11-02T16:06:06.087Z,6.87
2022-11-02T16:08:38.009Z,7.20
2022-11-02T16:11:07.487Z,6.20
2022-11-02T16:13:48.681Z,6.83
2022-11-02T16:16:26.119Z,8.00
2022-11-02T16:18:55.808Z,6.73
2022-11-02T16:21:24.418Z,7.50
2022-11-02T16:23:56.601Z,7.20
2022-11-02T16:26:27.536Z,7.50
2022-11-02T16:28:57.611Z,7.17
2022-11-02T16:54:12.864Z,6.60
2022-11-02T17:04:42.086Z,6.00
2022-11-02T17:07:15.039Z,8.20
2022-11-02T17:10:19.950Z,8.57
2022-11-02T17:12:50.029Z,8.10
2022-11-02T17:15:20.735Z,9.60
2022-11-02T17:17:49.120Z,9.37
2022-11-02T17:20:22.896Z,8.03
2022-11-02T17:23:45.326Z,8.43
2022-11-02T17:26:36.038Z,10.27
2022-11-02T17:29:43.383Z,9.27
2022-11-02T17:32:16.078Z,9.73
2022-11-02T17:34:51.715Z,9.57
2022-11-02T17:37:33.783Z,10.30
2022-11-02T17:40:03.743Z,9.47
2022-11-02T17:42:50.116Z,11.50
2022-11-02T17:45:27.346Z,8.63
2022-11-02T17:47:56.559Z,10.00
2022-11-02T17:50:26.485Z,11.30
2022-11-02T17:52:57.141Z,10.70
2022-11-02T17:55:31.086Z,10.80
2022-11-02T17:58:00.486Z,12.53
2022-11-02T18:00:30.627Z,10.53
2022-11-02T18:03:00.706Z,11.13
2022-11-02T18:05:32.234Z,9.00
2022-11-02T18:08:03.872Z,10.90
2022-11-02T18:10:35.264Z,10.10
2022-11-02T18:13:05.292Z,9.90
2022-11-02T18:15:35.189Z,10.43
2022-11-02T18:18:04.769Z,8.53
2022-11-02T18:20:40.284Z,9.17
2022-11-02T18:23:16.687Z,7.93
2022-11-02T18:25:46.388Z,8.87
2022-11-02T18:28:15.962Z,9.70
2022-11-02T18:30:46.957Z,10.87
2022-11-02T18:33:15.760Z,8.13
2022-11-02T18:35:46.824Z,8.07
2022-11-02T18:38:18.685Z,8.97
2022-11-02T18:40:49.009Z,8.97
2022-11-02T18:43:18.479Z,8.83
2022-11-02T18:45:48.015Z,9.47
2022-11-02T18:48:17.704Z,8.87
2022-11-02T18:50:47.318Z,7.47
2022-11-02T18:53:20.807Z,10.53
2022-11-02T18:55:51.075Z,8.30
2022-11-02T18:58:21.693Z,8.17
2022-11-02T19:00:52.078Z,7.80
2022-11-02T19:03:21.749Z,7.60
2022-11-02T19:06:16.240Z,8.43
2022-11-02T19:09:04.597Z,8.50
2022-11-02T19:11:34.331Z,8.43
2022-11-02T19:14:05.471Z,8.10
2022-11-02T19:16:35.167Z,5.90
2022-11-02T19:19:07.920Z,4.90
2022-11-02T19:21:37.600Z,4.90
2022-11-02T19:24:13.164Z,3.23
2022-11-02T19:26:45.284Z,2.70
2022-11-02T19:29:14.748Z,2.73
2022-11-02T19:31:45.627Z,2.53
2022-11-02T19:34:15.121Z,2.27
2022-11-02T19:36:45.065Z,1.90
2022-11-02T19:39:15.556Z,2.00
2022-11-02T19:41:45.726Z,2.17
2022-11-02T19:44:15.537Z,1.87
2022-11-02T19:46:45.576Z,2.33
2022-11-02T19:49:15.803Z,2.10
2022-11-02T19:51:46.648Z,2.30
2022-11-02T19:54:17.775Z,2.50
2022-11-02T19:56:48.698Z,2.20
2022-11-02T19:59:20.399Z,2.63
2022-11-02T20:01:51.081Z,2.00
2022-11-02T20:04:21.746Z,1.90
2022-11-02T20:06:57.379Z,2.20
2022-11-02T20:09:33.307Z,2.33
2022-11-02T20:16:35.355Z,2.93
2022-11-02T20:19:35.603Z,2.40
2022-11-02T20:25:36.744Z,2.13
2022-11-02T20:28:18.243Z,2.00
2022-11-02T20:30:50.138Z,2.43
2022-11-02T20:33:22.238Z,2.00
2022-11-02T20:35:52.295Z,1.83
2022-11-02T20:38:23.736Z,2.30
2022-11-02T20:40:58.948Z,2.07
2022-11-02T20:43:31.247Z,2.10
2022-11-02T20:46:35.452Z,2.50
2022-11-02T20:49:01.529Z,2.23
2022-11-02T20:51:39.116Z,2.50
2022-11-02T20:54:09.224Z,2.37
2022-11-02T20:56:40.045Z,1.90
2022-11-02T20:59:08.865Z,3.07
2022-11-02T21:01:40.757Z,2.33
2022-11-02T21:04:14.068Z,1.57
2022-11-02T21:06:48.672Z,2.10
2022-11-02T21:09:18.907Z,2.30
2022-11-02T21:12:06.795Z,2.00
2022-11-02T21:14:42.879Z,2.53
2022-11-02T21:17:12.556Z,2.60
2022-11-02T21:19:41.749Z,1.93
2022-11-02T21:22:12.004Z,2.33
2022-11-02T21:24:41.107Z,1.90
2022-11-02T21:27:12.010Z,2.43
2022-11-02T21:29:41.280Z,1.90
2022-11-02T21:32:10.599Z,2.10
2022-11-02T21:34:39.978Z,2.33
2022-11-02T21:37:09.211Z,2.00
2022-11-02T21:39:39.011Z,2.03
2022-11-02T21:42:08.437Z,2.20
2022-11-02T21:44:39.184Z,1.97
2022-11-02T21:47:08.934Z,2.27
2022-11-02T21:49:38.046Z,2.33
2022-11-02T21:52:07.071Z,1.90
2022-11-02T21:54:36.228Z,1.47
2022-11-02T21:57:05.847Z,1.70
2022-11-02T21:59:34.780Z,2.63
2022-11-02T22:02:04.545Z,2.50
2022-11-02T22:04:33.673Z,2.03
2022-11-02T22:07:03.428Z,1.90
2022-11-02T22:09:32.565Z,2.30
2022-11-02T22:12:19.752Z,3.17
2022-11-02T22:14:48.672Z,2.40
2022-11-02T22:17:43.299Z,2.13
2022-11-02T22:20:09.356Z,1.70
2022-11-02T22:22:38.206Z,1.90
2022-11-02T22:25:07.443Z,1.90
2022-11-02T22:27:36.652Z,2.27
2022-11-02T22:30:17.869Z,2.10
2022-11-02T22:32:48.379Z,1.87
2022-11-02T22:35:44.906Z,2.00
2022-11-02T22:38:31.346Z,1.90
2022-11-02T22:41:04.092Z,2.03
2022-11-02T22:43:33.270Z,2.20
2022-11-02T22:46:03.414Z,1.80
2022-11-02T22:48:34.341Z,2.03
2022-11-02T22:51:04.608Z,1.73
2022-11-02T22:53:34.018Z,1.70
2022-11-02T22:56:05.358Z,1.70
2022-11-02T22:58:35.159Z,2.70
2022-11-02T23:01:05.738Z,2.00
2022-11-02T23:03:37.195Z,2.27
2022-11-02T23:06:10.097Z,2.10
2022-11-02T23:08:40.526Z,2.27
2022-11-02T23:11:22.707Z,2.30
2022-11-02T23:13:54.130Z,2.00
2022-11-02T23:16:24.857Z,1.90
2022-11-02T23:22:30.722Z,2.30
2022-11-02T23:25:18.209Z,2.50
2022-11-02T23:28:06.005Z,2.50
2022-11-02T23:30:53.416Z,2.30
2022-11-02T23:33:23.789Z,2.77
2022-11-02T23:36:11.332Z,2.90
2022-11-02T23:38:57.941Z,2.80
2022-11-02T23:41:27.416Z,2.97
2022-11-02T23:44:12.109Z,2.80
2022-11-02T23:46:42.483Z,3.07
2022-11-02T23:49:13.077Z,2.70
2022-11-02T23:52:01.464Z,3.13
2022-11-02T23:54:48.187Z,3.60
2022-11-02T23:57:18.877Z,3.87
2022-11-02T23:59:48.080Z,2.80
